Las Vegas, Nevada (DRI) Weather observations

Data are for observation ending at time listed.
 Day   Time    Ave.   Ave.  Ave.  Vector   Max.   Stn.    Total    Solar   Ave.  
  of    of     Air    Rel.  Wind   Wind    Wind   Baro.  Precip.   Rad.    Soil  
Year   Day     Temp.  Hum.  Speed  Dir.    Gust   Pres.                    Temp. 
2017   (PST)    F      %     mph   deg.    mph     mb.     in.     W/m2     F   
------------------------------------------------------------------------------
  22    7:20   45.9    76    0.0    21      0.8   946.9    0.01       8    53.8
  22    7:30   45.8    77    0.4    49      2.9   946.9    0.00      11    53.8
  22    7:40   45.6    78    0.2    31      2.6   946.8    0.00      23    53.8
  22    7:50   45.7    78    0.5   149      3.7   946.9    0.00      37    53.7
  22    8:00   46.2    74    4.6   173      7.8   947.1    0.00      34    53.7
  22    8:10   46.5    72    4.6   170      7.7   946.9    0.00      24    53.7
  22    8:20   46.4    73    2.9   183      5.8   946.9    0.00      31    53.7
  22    8:30   46.4    75    2.4   178      4.3   947.0    0.01      35    53.7
  22    8:40   46.1    77    2.4   170      4.7   947.1    0.00      34    53.6
  22    8:50   45.9    79    1.6   181      3.6   947.5    0.01      34    53.6
  22    9:00   45.9    81    0.4   173      2.6   947.5    0.01      32    53.5
  22    9:10   45.9    82    0.0   156      0.6   947.4    0.01      56    53.5
  22    9:20   45.6    82    0.0    83      2.0   947.3    0.00      84    53.5
  22    9:30   45.5    83    0.7    58      2.8   947.6    0.01      62    53.5
  22    9:40   45.7    84    0.2    47      1.8   947.8    0.00      42    53.4
  22    9:50   45.7    85    1.0   172      4.1   947.6    0.01      56    53.4
  22   10:00   45.8    85    0.5   104      3.5   947.5    0.01      66    53.4
  22   10:10   45.8    84    1.7   169      6.8   947.5    0.00      66    53.3
  22   10:20   45.6    82    4.1   170      8.3   947.5    0.01      66    53.3
  22   10:30   45.7    81    4.3   171      7.7   947.5    0.00      60    53.3
  22   10:40   45.7    82    3.5   170      6.5   947.6    0.01      50    53.3
  22   10:50   45.6    82    2.9   164      5.1   947.3    0.00      48    53.2
  22   11:00   45.7    83    0.5   164      2.3   946.8    0.01      63    53.2
  22   11:10   45.8    84    0.1   158      1.2   946.4    0.01      76    53.2
  22   11:20   45.8    84    0.1   174      1.2   946.3    0.01      65    53.2
  22   11:30   45.8    86    0.0     0      0.0   946.3    0.01      61    53.1
  22   11:40   45.6    86    1.1   188      6.1   946.3    0.01      44    53.1
  22   11:50   45.5    85    1.0   184      3.3   946.1    0.01      51    53.0
  22   12:00   45.2    83    4.2   171      8.8   945.8    0.01      71    53.0
  22   12:10   45.1    83    2.0   174      6.5   945.3    0.01     108    53.0
  22   12:20   45.5    84    0.6    11      3.1   945.1    0.01     126    53.0
  22   12:30   45.5    84    0.9    42      2.8   945.0    0.01     110    53.0
  22   12:40   45.7    84    1.2    42      4.6   944.6    0.00     114    52.9
  22   12:50   45.5    84    2.0    50      5.3   944.7    0.00      91    52.9
  22   13:00   45.5    84    1.3    54      3.4   945.0    0.00      53    52.9
  22   13:10   45.5    83    1.7    53      4.5   944.5    0.00      66    52.9
  22   13:20   45.2    85    2.2    53      4.0   944.3    0.01      69    52.8
  22   13:30   45.3    85    1.8    49      4.3   943.9    0.01      67    52.8
  22   13:40   45.4    84    2.3    48      4.5   943.7    0.00      65    52.8
  22   13:50   45.3    85    1.3    51      4.2   943.4    0.01      74    52.8
  22   14:00   45.6    86    0.1    28      1.2   943.6    0.01      48    52.8
  22   14:10   45.5    84    1.6    48      4.1   943.7    0.01      42    52.8
  22   14:20   45.5    84    1.4    56      2.9   943.6    0.00      55    52.8
  22   14:30   45.7    84    0.8    51      2.9   943.5    0.01      71    52.7
  22   14:40   45.7    86    1.4    50      3.0   943.4    0.01      55    52.7
  22   14:50   45.7    86    1.3   170      4.7   943.4    0.00      60    52.7
  22   15:00   45.9    84    4.0   167      8.3   943.6    0.01      40    52.7
  22   15:10   45.9    82    4.7   170      7.7   943.5    0.00      33    52.7
  22   15:20   46.1    83    1.7    84      5.0   943.0    0.01      41    52.7
  22   15:30   45.9    86    1.1    52      3.4   942.8    0.00      55    52.6
  22   15:40   46.0    86    0.6    52      2.6   942.8    0.01      41    52.6
  22   15:50   45.7    84    0.7    53      3.7   942.5    0.00      21    52.6
  22   16:00   46.0    84    0.3   349      1.9   942.6    0.00      21    52.6
  22   16:10   46.2    85    1.4   350      2.7   942.7    0.00      18    52.6
  22   16:20   46.0    86    1.2     3      2.6   942.7    0.00      13    52.6
  22   16:30   45.9    87    1.6    12      3.1   942.6    0.01      13    52.5
  22   16:40   45.8    88    0.9    27      3.0   942.6    0.00       6    52.5
  22   16:50   45.6    88    0.8    32      2.5   943.0    0.01       2    52.5
  22   17:00   45.4    88    1.6   360      2.9   942.9    0.01       0    52.5
  22   17:10   45.6    89    0.4     3      1.8   942.6    0.01       0    52.5
  22   17:20   45.7    90    0.1     5      1.4   942.6    0.00       0    52.5
  22   17:30   45.6    90    0.6    17      1.9   942.6    0.01       0    52.5
  22   17:40   45.5    90    0.4    40      1.5   942.4    0.00       0    52.4
  22   17:50   45.5    90    0.1    33      1.4   942.4    0.01       0    52.4
  22   18:00   45.7    90    0.0     0      0.0   942.4    0.00       0    52.4
  22   18:10   45.7    90    0.0     0      0.0   942.2    0.00       0    52.4
  22   18:20   45.8    91    0.0    33      0.4   942.1    0.01       0    52.4
  22   18:30   45.8    91    0.5     9      5.6   942.1    0.00       0    52.4
  22   18:40   45.9    90    0.7    16      4.0   941.9    0.00       0    52.4
  22   18:50   45.9    89    0.0    38      0.4   942.0    0.00       0    52.3
  22   19:00   46.0    89    0.0     0      0.0   941.7    0.00       0    52.3
  22   19:10   46.1    89    0.0     0      0.0   941.4    0.00       0    52.3
  22   19:20   46.1    89    0.1   340      1.1   941.3    0.00       0    52.3
  22   19:30   46.2    89    0.5   353      2.4   941.4    0.01       0    52.3
  22   19:40   46.1    89    1.1   140      2.8   941.2    0.00       0    52.3
  22   19:50   46.4    88    0.7   171      5.3   941.0    0.00       0    52.2
  22   20:00   46.7    86    0.4   137      4.0   940.8    0.00       0    52.2
  22   20:10   46.5    87    0.1    45      1.6   940.6    0.01       0    52.2
  22   20:20   46.2    89    0.1    30      1.5   940.2    0.00       0    52.2
  22   20:30   46.2    90    0.7    47      2.9   939.8    0.00       0    52.2
  22   20:40   46.2    90    0.4    26      2.9   939.4    0.00       0    52.2
  22   20:50   46.7    89    0.2   190      3.1   939.6    0.00       0    52.2
  22   21:00   47.1    87    0.6    44      2.7   939.3    0.01       0    52.2
  22   21:10   47.2    87    0.2     9      1.2   939.2    0.00       0    52.2
  22   21:20   47.2    86    0.7    32      2.5   939.1    0.00       0    52.2
  22   21:30   47.5    86    1.3   333      4.2   938.9    0.00       0    52.2
  22   21:40   47.5    86    1.9     7      8.2   938.9    0.00       0    52.2
  22   21:50   47.8    83    1.7    35      6.4   938.7    0.00       0    52.2
  22   22:00   48.3    80    1.9    46      5.3   938.6    0.00       0    52.2
  22   22:10   48.7    80    0.7   176      3.7   938.5    0.01       0    52.2
  22   22:20   48.8    78    2.9   157     11.3   938.3    0.00       0    52.1
  22   22:30   50.3    71   10.4   170     19.8   938.3    0.00       0    52.1
  22   22:40   50.7    71    9.6   168     17.8   938.3    0.00       0    52.1
  22   22:50   50.2    74    6.2   172     17.2   938.5    0.02       0    52.1
  22   23:00   49.4    78    4.2   169     13.0   938.4    0.01       0    52.1
  22   23:10   49.5    77    7.7   169     16.1   938.5    0.01       0    52.1
  22   23:20   49.5    77    5.8   170     17.0   938.3    0.01       0    52.1
  22   23:30   49.3    79    5.9   169     13.6   938.1    0.00       0    52.1
  22   23:40   49.6    78    4.3   168     12.9   938.0    0.00       0    52.0
  22   23:50   49.6    77    5.7   168     14.7   937.6    0.00       0    52.0
  23    0:00   49.7    76    9.0   169     17.5   937.6    0.00       0    52.0
  23    0:10   49.7    76    7.4   168     15.3   937.5    0.00       0    52.0
  23    0:20   49.6    77    7.5   169     15.7   937.5    0.01       0    52.0
  23    0:30   49.4    78    5.8   168     14.0   937.4    0.00       0    51.9
  23    0:40   49.6    77    3.5   168      9.8   937.1    0.00       0    51.9
  23    0:50   49.7    77    3.3   177     10.1   936.9    0.00       0    51.9
  23    1:00   50.0    76    5.2   169     10.2   936.8    0.00       0    51.9
  23    1:10   50.1    75    3.6   174     13.6   936.5    0.00       0    51.9
  23    1:20   50.1    76    3.7   168     12.9   936.6    0.00       0    51.9
  23    1:30   50.1    76    3.3   175     12.4   936.7    0.00       0    51.9
  23    1:40   50.0    76    1.6   174      8.8   936.5    0.00       0    51.9
  23    1:50   50.2    75    1.4     6      4.7   936.3    0.00       0    51.9
  23    2:00   50.4    74    1.5    33      5.8   936.1    0.00       0    51.9
  23    2:10   49.9    77    1.0    42      4.4   936.0    0.00       0    51.9
  23    2:20   50.1    75    1.8   153      8.8   935.8    0.00       0    51.9
  23    2:30   50.5    73    0.8   148      6.0   935.7    0.00       0    51.9
  23    2:40   50.1    75    0.2    49      2.0   935.6    0.00       0    51.9
  23    2:50   49.5    77    0.3    39      1.5   935.3    0.00       0    51.8
  23    3:00   49.3    77    1.7    42      3.4   934.8    0.00       0    51.8
  23    3:10   50.2    74    1.8   163      7.3   934.4    0.00       0    51.8
  23    3:20   51.7    68    4.5   175      7.6   934.3    0.00       0    51.8
  23    3:30   53.0    61    8.7   178     17.8   934.3    0.00       0    51.9
  23    3:40   53.4    61    6.9   188     12.0   934.7    0.00       0    51.8
  23    3:50   51.9    69    7.8   186     18.0   935.0    0.03       0    51.8
  23    4:00   49.8    76    7.8   185     16.7   935.0    0.02       0    51.8
  23    4:10   49.7    74    5.3   205     17.5   935.0    0.00       0    51.8
  23    4:20   49.9    73    2.5   250      8.2   935.3    0.00       0    51.7
  23    4:30   49.7    71    2.2   262      7.7   935.5    0.00       0    51.7
  23    4:40   49.3    66    5.7   239     19.1   935.7    0.01       0    51.7
  23    4:50   48.3    65    6.0   216     15.8   935.8    0.00       0    51.7
  23    5:00   48.6    62    5.5   201     13.0   935.7    0.00       0    51.7
  23    5:10   49.7    55    5.3   209     14.3   935.5    0.00       0    51.7
  23    5:20   49.6    58    3.5   186      7.4   935.5    0.00       0    51.7
  23    5:30   49.2    63    3.8   168     14.5   935.5    0.00       0    51.7
  23    5:40   49.1    60    8.3   174     19.0   935.7    0.01       0    51.7
  23    5:50   49.1    60    6.1   178     12.6   935.9    0.00       0    51.7
  23    6:00   48.7    60    5.0   180     11.0   935.8    0.00       0    51.7
  23    6:10   48.8    56    6.6   178     11.4   935.8    0.00       0    51.7
  23    6:20   48.1    60    5.5   168     13.4   935.8    0.00       0    51.6
  23    6:30   48.4    56    7.2   175     16.6   935.8    0.00       0    51.6
  23    6:40   48.8    54    8.8   175     14.5   936.0    0.00       1    51.6
  23    6:50   48.5    54    9.9   177     19.5   936.0    0.00       4    51.6
  23    7:00   48.5    52   10.0   180     19.4   936.0    0.00       4    51.6
  23    7:10   48.2    54    6.5   180     15.9   936.2    0.00      18    51.5

Return to Las Vegas, Nevada graphs page.


Western Regional Climate Center,wrcc@dri.edu